createdAt,value
2023-05-10T00:00:09.338Z,12.27
2023-05-10T00:01:09.668Z,12.24
2023-05-10T00:02:10.083Z,12.27
2023-05-10T00:03:10.372Z,12.23
2023-05-10T00:04:10.610Z,12.21
2023-05-10T00:05:10.928Z,12.21
2023-05-10T00:06:11.246Z,12.19
2023-05-10T00:07:11.615Z,12.19
2023-05-10T00:08:11.878Z,12.17
2023-05-10T00:09:12.123Z,12.16
2023-05-10T00:10:12.545Z,12.16
2023-05-10T00:11:12.774Z,12.14
2023-05-10T00:12:13.110Z,12.13
2023-05-10T00:13:13.480Z,12.12
2023-05-10T00:14:13.698Z,12.13
2023-05-10T00:15:14.056Z,12.12
2023-05-10T00:16:14.432Z,12.12
2023-05-10T00:17:14.654Z,12.10
2023-05-10T00:18:14.874Z,12.10
2023-05-10T00:19:15.202Z,12.10
2023-05-10T00:20:15.663Z,12.09
2023-05-10T00:21:15.711Z,12.10
2023-05-10T00:22:16.512Z,12.07
2023-05-10T00:23:16.403Z,12.10
2023-05-10T00:24:16.625Z,12.05
2023-05-10T00:25:17.177Z,12.07
2023-05-10T00:26:17.121Z,12.05
2023-05-10T00:27:17.519Z,12.05
2023-05-10T00:28:17.832Z,12.02
2023-05-10T00:29:18.189Z,12.01
2023-05-10T00:30:18.614Z,11.99
2023-05-10T00:31:18.770Z,11.98
2023-05-10T00:32:19.264Z,11.98
2023-05-10T00:33:19.280Z,11.96
2023-05-10T00:34:19.571Z,11.96
2023-05-10T00:35:20.075Z,11.95
2023-05-10T00:36:20.251Z,11.95
2023-05-10T00:37:20.341Z,11.94
2023-05-10T00:38:20.678Z,11.91
2023-05-10T00:39:20.966Z,11.94
2023-05-10T00:40:21.189Z,11.91
2023-05-10T00:41:21.690Z,11.88
2023-05-10T00:42:21.850Z,11.88
2023-05-10T00:43:22.223Z,11.88
2023-05-10T00:44:22.429Z,11.85
2023-05-10T00:45:22.802Z,11.83
2023-05-10T00:46:23.088Z,11.82
2023-05-10T00:47:23.349Z,11.80
2023-05-10T00:48:23.650Z,11.79
2023-05-10T00:49:23.841Z,11.78
2023-05-10T00:50:24.210Z,11.76
2023-05-10T00:51:24.425Z,11.76
2023-05-10T00:52:24.776Z,11.75
2023-05-10T00:53:24.984Z,11.75
2023-05-10T00:54:25.346Z,11.72
2023-05-10T00:55:25.608Z,11.72
2023-05-10T00:56:25.813Z,11.70
2023-05-10T00:57:26.166Z,11.70
2023-05-10T00:58:26.369Z,11.69
2023-05-10T00:59:26.725Z,11.67
2023-05-10T01:00:27.087Z,11.69
2023-05-10T01:01:27.470Z,11.65
2023-05-10T01:02:27.790Z,11.65
2023-05-10T01:03:28.073Z,11.67
2023-05-10T01:04:28.395Z,11.64
2023-05-10T01:05:28.558Z,11.64
2023-05-10T01:06:29.049Z,11.64
2023-05-10T01:07:29.306Z,11.65
2023-05-10T01:08:29.524Z,11.62
2023-05-10T01:09:29.868Z,11.61
2023-05-10T01:10:30.089Z,11.61
2023-05-10T01:11:30.440Z,11.61
2023-05-10T01:12:30.809Z,11.58
2023-05-10T01:13:31.165Z,11.57
2023-05-10T01:14:31.440Z,11.57
2023-05-10T01:15:31.709Z,11.55
2023-05-10T01:16:31.997Z,11.55
2023-05-10T01:17:32.217Z,11.55
2023-05-10T01:18:32.520Z,11.55
2023-05-10T01:19:32.869Z,11.54
2023-05-10T01:20:33.121Z,11.52
2023-05-10T01:21:33.348Z,11.49
2023-05-10T01:22:33.663Z,11.49
2023-05-10T01:23:33.987Z,11.46
2023-05-10T01:24:34.314Z,11.46
2023-05-10T01:25:34.733Z,11.46
2023-05-10T01:26:34.956Z,11.46
2023-05-10T01:27:35.221Z,11.44
2023-05-10T01:28:35.429Z,11.43
2023-05-10T01:29:35.778Z,11.43
2023-05-10T01:30:36.081Z,11.44
2023-05-10T01:31:36.355Z,11.42
2023-05-10T01:32:36.628Z,11.42
2023-05-10T01:33:36.999Z,11.42
2023-05-10T01:34:37.276Z,11.42
2023-05-10T01:35:37.550Z,11.40
2023-05-10T01:36:37.860Z,11.37
2023-05-10T01:37:38.107Z,11.39
2023-05-10T01:38:38.439Z,11.37
2023-05-10T01:39:38.981Z,11.36
2023-05-10T01:40:38.967Z,11.35
2023-05-10T01:41:39.183Z,11.36
2023-05-10T01:42:39.547Z,11.35
2023-05-10T01:43:39.837Z,11.33
2023-05-10T01:44:40.089Z,11.32
2023-05-10T01:45:40.542Z,11.29
2023-05-10T01:46:40.865Z,11.29
2023-05-10T01:47:41.125Z,11.29
2023-05-10T01:48:41.382Z,11.28
2023-05-10T01:49:41.617Z,11.28
2023-05-10T01:50:41.830Z,11.27
2023-05-10T01:51:42.180Z,11.25
2023-05-10T01:52:42.431Z,11.25
2023-05-10T01:53:42.656Z,11.22
2023-05-10T01:54:42.904Z,11.22
2023-05-10T01:55:43.174Z,11.22
2023-05-10T01:56:43.400Z,11.21
2023-05-10T01:57:43.622Z,11.21
2023-05-10T01:58:43.968Z,11.18
2023-05-10T01:59:44.324Z,11.17
2023-05-10T02:00:44.635Z,11.15
2023-05-10T02:01:44.863Z,11.15
2023-05-10T02:02:45.131Z,11.14
2023-05-10T02:03:45.426Z,11.14
2023-05-10T02:04:45.571Z,11.14
2023-05-10T02:05:45.928Z,11.11
2023-05-10T02:06:46.188Z,11.11
2023-05-10T02:07:46.411Z,11.10
2023-05-10T02:08:46.800Z,11.11
2023-05-10T02:09:47.138Z,11.09
2023-05-10T02:10:47.403Z,11.09
2023-05-10T02:11:47.630Z,11.06
2023-05-10T02:12:47.876Z,11.03
2023-05-10T02:13:48.277Z,11.02
2023-05-10T02:14:48.479Z,11.03
2023-05-10T02:15:48.783Z,11.00
2023-05-10T02:16:49.042Z,11.02
2023-05-10T02:17:49.335Z,11.02
2023-05-10T02:18:49.561Z,10.99
2023-05-10T02:19:49.911Z,10.97
2023-05-10T02:20:50.147Z,10.97
2023-05-10T02:21:50.425Z,10.96
2023-05-10T02:22:50.630Z,10.97
2023-05-10T02:23:50.964Z,10.96
2023-05-10T02:24:51.381Z,10.94
2023-05-10T02:25:51.604Z,10.94
2023-05-10T02:26:51.925Z,10.92
2023-05-10T02:27:52.241Z,10.92
2023-05-10T02:28:52.612Z,10.91
2023-05-10T02:29:52.948Z,10.89
2023-05-10T02:30:53.184Z,10.91
2023-05-10T02:31:53.435Z,10.89
2023-05-10T02:32:53.763Z,10.88
2023-05-10T02:33:54.116Z,10.88
2023-05-10T02:34:54.370Z,10.85
2023-05-10T02:35:54.624Z,10.84
2023-05-10T02:36:54.870Z,10.82
2023-05-10T02:37:55.178Z,10.82
2023-05-10T02:38:55.515Z,10.81
2023-05-10T02:39:55.886Z,10.81
2023-05-10T02:40:56.092Z,10.79
2023-05-10T02:41:56.420Z,10.78
2023-05-10T02:42:56.729Z,10.76
2023-05-10T02:43:57.072Z,10.78
2023-05-10T02:44:57.412Z,10.74
2023-05-10T02:45:57.771Z,10.76
2023-05-10T02:46:58.103Z,10.73
2023-05-10T02:47:58.460Z,10.71
2023-05-10T02:48:58.656Z,10.68
2023-05-10T02:49:58.932Z,10.64
2023-05-10T02:50:59.147Z,10.61
2023-05-10T02:51:59.546Z,10.60
2023-05-10T02:52:59.707Z,10.59
2023-05-10T02:54:00.127Z,10.59
2023-05-10T02:55:00.342Z,10.59
2023-05-10T02:56:00.700Z,10.56
2023-05-10T02:57:00.925Z,10.56
2023-05-10T02:58:01.271Z,10.55
2023-05-10T02:59:01.513Z,10.55
2023-05-10T03:00:01.738Z,10.55
2023-05-10T03:01:02.151Z,10.59
2023-05-10T03:02:02.352Z,10.59
2023-05-10T03:03:02.737Z,10.60
2023-05-10T03:04:02.908Z,10.61
2023-05-10T03:05:03.203Z,10.60
2023-05-10T03:06:03.424Z,10.60
2023-05-10T03:07:03.660Z,10.63
2023-05-10T03:08:03.880Z,10.63
2023-05-10T03:09:04.239Z,10.60
2023-05-10T03:10:04.497Z,10.61
2023-05-10T03:11:04.743Z,10.60
2023-05-10T03:12:05.144Z,10.61
2023-05-10T03:13:05.394Z,10.61
2023-05-10T03:14:05.854Z,10.61
2023-05-10T03:15:06.074Z,10.60
2023-05-10T03:16:06.367Z,10.61
2023-05-10T03:17:06.600Z,10.61
2023-05-10T03:18:06.913Z,10.61
2023-05-10T03:19:07.189Z,10.60
2023-05-10T03:20:07.423Z,10.60
2023-05-10T03:21:07.754Z,10.56
2023-05-10T03:22:08.164Z,10.56
2023-05-10T03:23:08.373Z,10.56
2023-05-10T03:24:08.713Z,10.55
2023-05-10T03:25:09.093Z,10.55
2023-05-10T03:26:09.354Z,10.55
2023-05-10T03:27:09.592Z,10.52
2023-05-10T03:28:09.818Z,10.52
2023-05-10T03:29:10.083Z,10.51
2023-05-10T03:30:10.307Z,10.52
2023-05-10T03:31:10.596Z,10.53
2023-05-10T03:32:10.775Z,10.52
2023-05-10T03:33:11.124Z,10.51
2023-05-10T03:34:11.455Z,10.48
2023-05-10T03:35:11.700Z,10.47
2023-05-10T03:36:12.114Z,10.47
2023-05-10T03:37:12.362Z,10.47
2023-05-10T03:38:12.624Z,10.48
2023-05-10T03:39:12.874Z,10.48
2023-05-10T03:40:13.158Z,10.47
2023-05-10T03:41:13.422Z,10.48
2023-05-10T03:42:13.653Z,10.48
2023-05-10T03:43:13.942Z,10.48
2023-05-10T03:44:14.177Z,10.48
2023-05-10T03:45:14.463Z,10.48
2023-05-10T03:46:14.904Z,10.47
2023-05-10T03:47:14.988Z,10.47
2023-05-10T03:48:15.301Z,10.48
2023-05-10T03:49:15.573Z,10.47
2023-05-10T03:50:16.220Z,10.47
2023-05-10T03:51:16.197Z,10.45
2023-05-10T03:52:16.470Z,10.45
2023-05-10T03:53:16.769Z,10.45
2023-05-10T03:54:17.015Z,10.47
2023-05-10T03:55:17.288Z,10.45
2023-05-10T03:56:17.518Z,10.45
2023-05-10T03:57:17.763Z,10.47
2023-05-10T03:58:18.001Z,10.44
2023-05-10T03:59:18.278Z,10.45
2023-05-10T04:00:18.858Z,10.44
2023-05-10T04:01:18.857Z,10.44
2023-05-10T04:02:19.118Z,10.42
2023-05-10T04:03:19.451Z,10.42
2023-05-10T04:04:19.950Z,10.42
2023-05-10T04:05:19.954Z,10.44
2023-05-10T04:06:20.291Z,10.44
2023-05-10T04:07:20.536Z,10.45
2023-05-10T04:08:20.802Z,10.45
2023-05-10T04:09:21.087Z,10.42
2023-05-10T04:10:21.330Z,10.44
2023-05-10T04:11:21.589Z,10.45
2023-05-10T04:12:21.837Z,10.44
2023-05-10T04:13:22.215Z,10.47
2023-05-10T04:14:22.369Z,10.47
2023-05-10T04:15:22.653Z,10.47
2023-05-10T04:16:22.959Z,10.51
2023-05-10T04:17:23.250Z,10.52
2023-05-10T04:18:23.499Z,10.52
2023-05-10T04:19:24.159Z,10.52
2023-05-10T04:20:24.092Z,10.56
2023-05-10T04:21:24.312Z,10.59
2023-05-10T04:22:24.565Z,10.56
2023-05-10T04:23:24.793Z,10.59
2023-05-10T04:24:25.036Z,10.59
2023-05-10T04:25:25.300Z,10.60
2023-05-10T04:26:25.572Z,10.61
2023-05-10T04:27:25.802Z,10.61
2023-05-10T04:28:26.039Z,10.64
2023-05-10T04:29:26.311Z,10.64
2023-05-10T04:30:26.584Z,10.66
2023-05-10T04:31:26.910Z,10.67
2023-05-10T04:32:27.126Z,10.67
2023-05-10T04:33:27.372Z,10.68
2023-05-10T04:34:27.664Z,10.71
2023-05-10T04:35:27.906Z,10.74
2023-05-10T04:36:28.185Z,10.74
2023-05-10T04:37:28.424Z,10.78
2023-05-10T04:38:28.655Z,10.76
2023-05-10T04:39:28.936Z,10.78
2023-05-10T04:40:29.169Z,10.79
2023-05-10T04:41:29.433Z,10.81
2023-05-10T04:42:29.703Z,10.82
2023-05-10T04:43:29.950Z,10.84
2023-05-10T04:44:30.208Z,10.85
2023-05-10T04:45:30.491Z,10.88
2023-05-10T04:46:30.781Z,10.91
2023-05-10T04:47:31.037Z,10.92
2023-05-10T04:48:31.275Z,10.96
2023-05-10T04:49:31.536Z,10.97
2023-05-10T04:50:31.793Z,11.02
2023-05-10T04:51:32.079Z,11.02
2023-05-10T04:52:32.376Z,11.04
2023-05-10T04:53:32.639Z,11.09
2023-05-10T04:54:32.891Z,11.17
2023-05-10T04:55:33.173Z,11.28
2023-05-10T04:56:33.451Z,11.57
2023-05-10T04:57:33.693Z,12.09
2023-05-10T04:58:33.960Z,12.71
2023-05-10T04:59:34.234Z,13.44
2023-05-10T05:00:34.534Z,14.12
2023-05-10T05:01:34.927Z,14.60
2023-05-10T05:02:35.150Z,14.96
2023-05-10T05:03:35.400Z,15.17
2023-05-10T05:04:35.534Z,15.47
2023-05-10T05:05:35.841Z,15.69
2023-05-10T05:06:36.050Z,15.83
2023-05-10T05:07:36.343Z,15.94
2023-05-10T05:08:36.578Z,16.17
2023-05-10T05:09:36.857Z,16.35
2023-05-10T05:10:37.138Z,16.53
2023-05-10T05:11:37.450Z,16.57
2023-05-10T05:12:37.645Z,16.53
2023-05-10T05:13:38.002Z,16.61
2023-05-10T05:14:38.305Z,16.73
2023-05-10T05:15:38.605Z,16.81
2023-05-10T05:16:38.865Z,16.75
2023-05-10T05:17:39.135Z,16.70
2023-05-10T05:18:39.411Z,16.60
2023-05-10T05:19:39.737Z,16.71
2023-05-10T05:20:39.985Z,16.91
2023-05-10T05:21:40.285Z,17.14
2023-05-10T05:22:40.545Z,17.25
2023-05-10T05:23:40.840Z,17.44
2023-05-10T05:24:41.098Z,17.56
2023-05-10T05:25:41.387Z,17.77
2023-05-10T05:26:41.665Z,17.78
2023-05-10T05:27:41.925Z,17.81
2023-05-10T05:28:42.188Z,17.78
2023-05-10T05:29:42.657Z,17.81
2023-05-10T05:30:42.812Z,17.86
2023-05-10T05:31:43.230Z,17.97
2023-05-10T05:32:43.439Z,18.02
2023-05-10T05:33:43.739Z,18.29
2023-05-10T05:34:43.872Z,18.48
2023-05-10T05:35:44.115Z,18.67
2023-05-10T05:36:44.501Z,18.65
2023-05-10T05:37:44.640Z,18.70
2023-05-10T05:38:44.968Z,18.85
2023-05-10T05:39:45.250Z,18.85
2023-05-10T05:40:45.520Z,18.99
2023-05-10T05:41:45.791Z,19.08
2023-05-10T05:42:46.417Z,19.14
2023-05-10T05:43:46.352Z,19.13
2023-05-10T05:44:46.682Z,19.14
2023-05-10T05:45:47.093Z,19.04
2023-05-10T05:46:47.336Z,19.00
2023-05-10T05:47:47.594Z,18.99
2023-05-10T05:48:47.750Z,19.18
2023-05-10T05:49:48.189Z,19.44
2023-05-10T05:50:48.405Z,19.28
2023-05-10T05:51:48.601Z,19.29
2023-05-10T05:52:48.904Z,19.21
2023-05-10T05:53:49.203Z,19.31
2023-05-10T05:54:49.531Z,19.56
2023-05-10T05:55:50.572Z,19.77
2023-05-10T05:56:50.186Z,19.95
2023-05-10T05:57:50.472Z,19.96
2023-05-10T05:58:50.738Z,19.99
2023-05-10T05:59:51.092Z,20.06
2023-05-10T06:00:51.340Z,19.94
2023-05-10T06:01:51.810Z,19.69
2023-05-10T06:02:52.160Z,19.78
2023-05-10T06:03:53.490Z,19.84
2023-05-10T06:04:52.469Z,19.98
2023-05-10T06:05:52.791Z,20.01
2023-05-10T06:06:53.180Z,20.18
2023-05-10T06:07:53.332Z,20.38
2023-05-10T06:08:53.723Z,20.29
2023-05-10T06:09:53.887Z,20.51
2023-05-10T06:10:54.188Z,20.62
2023-05-10T06:11:54.474Z,20.61
2023-05-10T06:12:54.897Z,20.76
2023-05-10T06:14:01.278Z,20.72
2023-05-10T06:14:55.438Z,20.87
2023-05-10T06:15:55.694Z,21.16
2023-05-10T06:16:56.005Z,21.52
2023-05-10T06:17:56.204Z,21.67
2023-05-10T06:18:56.334Z,21.54
2023-05-10T06:19:56.688Z,21.50
2023-05-10T06:20:56.999Z,21.53
2023-05-10T06:21:57.409Z,21.58
2023-05-10T06:22:57.671Z,21.74
2023-05-10T06:23:57.917Z,21.96
2023-05-10T06:24:58.332Z,21.84
2023-05-10T06:25:58.375Z,21.91
2023-05-10T06:26:59.398Z,21.80
2023-05-10T06:28:21.504Z,21.64
2023-05-10T06:28:59.196Z,21.53
2023-05-10T06:30:11.604Z,21.43
2023-05-10T06:31:00.688Z,21.21
2023-05-10T06:31:59.960Z,21.10
2023-05-10T06:33:00.667Z,21.01
2023-05-10T06:34:00.847Z,21.07
2023-05-10T06:35:00.736Z,21.28
2023-05-10T06:36:01.073Z,21.27
2023-05-10T06:37:01.498Z,21.22
2023-05-10T06:38:02.060Z,21.10
2023-05-10T06:39:01.880Z,20.88
2023-05-10T06:40:02.421Z,20.72
2023-05-10T06:41:02.404Z,20.38
2023-05-10T06:42:02.759Z,20.14
2023-05-10T06:43:02.917Z,19.99
2023-05-10T06:44:03.220Z,19.80
2023-05-10T06:45:03.478Z,19.55
2023-05-10T06:46:03.843Z,18.95
2023-05-10T06:47:04.054Z,18.55
2023-05-10T06:48:04.393Z,18.27
2023-05-10T06:49:04.626Z,17.93
2023-05-10T06:50:04.930Z,17.70
2023-05-10T06:51:05.318Z,17.34
2023-05-10T06:52:05.997Z,17.12
2023-05-10T06:53:05.695Z,16.86
2023-05-10T06:54:06.052Z,16.64
2023-05-10T06:55:06.400Z,16.43
2023-05-10T06:56:06.637Z,16.30
2023-05-10T06:57:16.165Z,16.11
2023-05-10T06:58:08.157Z,16.00
2023-05-10T06:59:07.694Z,15.92
2023-05-10T07:00:07.840Z,15.86
2023-05-10T07:01:08.033Z,15.76
2023-05-10T07:02:08.380Z,15.71
2023-05-10T07:03:08.755Z,15.69
2023-05-10T07:04:09.013Z,15.68
2023-05-10T07:05:09.289Z,15.67
2023-05-10T07:06:15.643Z,15.67
2023-05-10T07:07:10.979Z,15.67
2023-05-10T07:08:10.155Z,15.64
2023-05-10T07:09:10.279Z,15.62
2023-05-10T07:10:10.532Z,15.65
2023-05-10T07:11:10.802Z,15.67
2023-05-10T07:12:13.434Z,15.68
2023-05-10T07:13:11.395Z,15.65
2023-05-10T07:14:11.572Z,15.65
2023-05-10T07:15:11.861Z,15.62
2023-05-10T07:16:12.200Z,15.60
2023-05-10T07:17:12.373Z,15.60
2023-05-10T07:18:12.626Z,15.62
2023-05-10T07:19:12.832Z,15.60
2023-05-10T07:20:13.098Z,15.62
2023-05-10T07:21:13.416Z,15.64
2023-05-10T07:22:13.615Z,15.68
2023-05-10T07:23:13.872Z,15.69
2023-05-10T07:24:14.146Z,15.71
2023-05-10T07:25:14.528Z,15.76
2023-05-10T07:26:14.634Z,15.80
2023-05-10T07:27:14.891Z,15.83
2023-05-10T07:28:15.144Z,15.84
2023-05-10T07:29:15.456Z,15.87
2023-05-10T07:30:15.732Z,15.90
2023-05-10T07:31:15.961Z,15.92
2023-05-10T07:32:16.263Z,15.89
2023-05-10T07:33:16.530Z,15.90
2023-05-10T07:34:16.785Z,15.92
2023-05-10T07:35:17.205Z,15.90
2023-05-10T07:36:17.261Z,15.93
2023-05-10T07:37:17.506Z,15.89
2023-05-10T07:38:17.713Z,15.90
2023-05-10T07:39:26.461Z,15.87
2023-05-10T07:40:19.375Z,15.89
2023-05-10T07:41:18.695Z,15.89
2023-05-10T07:42:18.950Z,15.92
2023-05-10T07:43:19.164Z,15.89
2023-05-10T07:44:19.558Z,15.90
2023-05-10T07:45:19.810Z,15.89
2023-05-10T07:46:20.083Z,15.86
2023-05-10T07:47:20.375Z,15.86
2023-05-10T07:48:20.614Z,15.87
2023-05-10T07:49:20.849Z,15.89
2023-05-10T07:50:21.102Z,15.90
2023-05-10T07:51:21.428Z,15.92
2023-05-10T07:52:29.461Z,15.94
2023-05-10T07:53:22.155Z,15.94
2023-05-10T07:54:22.486Z,15.96
2023-05-10T07:55:23.316Z,16.00
2023-05-10T07:56:22.768Z,16.02
2023-05-10T07:57:23.087Z,16.04
2023-05-10T07:58:23.311Z,16.07
2023-05-10T07:59:23.612Z,16.08
2023-05-10T08:00:23.897Z,16.12
2023-05-10T08:01:24.140Z,16.15
2023-05-10T08:02:24.386Z,16.20
2023-05-10T08:03:24.776Z,16.20
2023-05-10T08:04:24.943Z,16.21
2023-05-10T08:05:25.151Z,16.21
2023-05-10T08:06:25.393Z,16.21
2023-05-10T08:07:25.687Z,16.23
2023-05-10T08:08:25.951Z,16.23
2023-05-10T08:09:26.208Z,16.21
2023-05-10T08:10:26.427Z,16.24
2023-05-10T08:11:26.673Z,16.25
2023-05-10T08:12:26.943Z,16.25
2023-05-10T08:13:27.165Z,16.28
2023-05-10T08:14:27.413Z,16.31
2023-05-10T08:15:27.681Z,16.34
2023-05-10T08:16:27.988Z,16.35
2023-05-10T08:17:28.295Z,16.39
2023-05-10T08:18:28.698Z,16.43
2023-05-10T08:19:28.880Z,16.46
2023-05-10T08:20:29.018Z,16.48
2023-05-10T08:21:29.490Z,16.49
2023-05-10T08:22:29.616Z,16.50
2023-05-10T08:23:29.940Z,16.53
2023-05-10T08:24:30.256Z,16.56
2023-05-10T08:25:30.334Z,16.58
2023-05-10T08:26:30.812Z,16.60
2023-05-10T08:27:30.950Z,16.63
2023-05-10T08:28:31.127Z,16.63
2023-05-10T08:29:38.651Z,16.66
2023-05-10T08:30:32.707Z,16.67
2023-05-10T08:31:32.052Z,16.64
2023-05-10T08:32:32.239Z,16.64
2023-05-10T08:33:32.408Z,16.67
2023-05-10T08:34:32.676Z,16.68
2023-05-10T08:35:32.977Z,16.68
2023-05-10T08:36:33.277Z,16.68
2023-05-10T08:37:33.661Z,16.73
2023-05-10T08:38:33.878Z,16.75
2023-05-10T08:39:34.152Z,16.76
2023-05-10T08:40:34.517Z,16.78
2023-05-10T08:41:34.713Z,16.78
2023-05-10T08:42:35.021Z,16.79
2023-05-10T08:43:35.357Z,16.81
2023-05-10T08:44:35.746Z,16.83
2023-05-10T08:45:35.913Z,16.85
2023-05-10T08:46:36.234Z,16.85
2023-05-10T08:47:36.585Z,16.82
2023-05-10T08:48:36.809Z,16.79
2023-05-10T08:49:37.169Z,16.82
2023-05-10T08:50:37.434Z,16.85
2023-05-10T08:51:37.704Z,16.88
2023-05-10T08:52:38.148Z,16.91
2023-05-10T08:53:38.406Z,16.96
2023-05-10T08:54:38.502Z,16.98
2023-05-10T08:55:38.802Z,17.03
2023-05-10T08:56:39.163Z,17.01
2023-05-10T08:57:39.387Z,17.03
2023-05-10T08:58:39.720Z,17.04
2023-05-10T08:59:41.775Z,17.00
2023-05-10T09:00:43.652Z,16.98
2023-05-10T09:01:40.565Z,17.01
2023-05-10T09:02:40.730Z,17.03
2023-05-10T09:03:41.073Z,17.08
2023-05-10T09:04:41.302Z,17.14
2023-05-10T09:05:41.588Z,17.15
2023-05-10T09:06:41.918Z,17.16
2023-05-10T09:07:42.160Z,17.16
2023-05-10T09:08:42.396Z,17.16
2023-05-10T09:09:42.653Z,17.16
2023-05-10T09:10:42.987Z,17.19
2023-05-10T09:11:43.241Z,17.22
2023-05-10T09:12:43.556Z,17.26
2023-05-10T09:13:43.914Z,17.30
2023-05-10T09:14:44.069Z,17.36
2023-05-10T09:15:44.549Z,17.38
2023-05-10T09:16:44.740Z,17.40
2023-05-10T09:17:44.992Z,17.44
2023-05-10T09:18:45.508Z,17.48
2023-05-10T09:19:45.431Z,17.52
2023-05-10T09:20:45.728Z,17.52
2023-05-10T09:21:46.252Z,17.55
2023-05-10T09:22:46.335Z,17.59
2023-05-10T09:23:48.236Z,17.62
2023-05-10T09:24:46.955Z,17.64
2023-05-10T09:25:47.206Z,17.70
2023-05-10T09:26:47.469Z,17.74
2023-05-10T09:27:47.711Z,17.77
2023-05-10T09:28:48.005Z,17.79
2023-05-10T09:29:48.222Z,17.77
2023-05-10T09:30:48.479Z,17.78
2023-05-10T09:31:48.745Z,17.81
2023-05-10T09:32:49.062Z,17.84
2023-05-10T09:33:49.338Z,17.87
2023-05-10T09:34:49.573Z,17.90
2023-05-10T09:35:49.796Z,17.93
2023-05-10T09:36:50.092Z,17.96
2023-05-10T09:37:50.365Z,17.99
2023-05-10T09:38:50.611Z,18.00
2023-05-10T09:39:50.899Z,18.03
2023-05-10T09:40:51.156Z,18.03
2023-05-10T09:41:51.427Z,18.05
2023-05-10T09:42:51.690Z,18.08
2023-05-10T09:43:51.988Z,18.08
2023-05-10T09:44:52.243Z,18.10
2023-05-10T09:45:52.655Z,18.10
2023-05-10T09:46:52.764Z,18.12
2023-05-10T09:47:53.066Z,18.17
2023-05-10T09:48:53.337Z,18.21
2023-05-10T09:49:53.646Z,18.23
2023-05-10T09:50:53.910Z,18.23
2023-05-10T09:51:54.156Z,18.25
2023-05-10T09:52:54.922Z,18.25
2023-05-10T09:53:54.654Z,18.26
2023-05-10T09:54:54.906Z,18.27
2023-05-10T09:55:55.162Z,18.26
2023-05-10T09:56:55.413Z,18.27
2023-05-10T09:57:55.690Z,18.30
2023-05-10T09:58:55.941Z,18.32
2023-05-10T09:59:56.232Z,18.35
2023-05-10T10:00:56.761Z,18.37
2023-05-10T10:01:57.059Z,18.39
2023-05-10T10:02:57.185Z,18.41
2023-05-10T10:03:57.513Z,18.41
2023-05-10T10:04:57.873Z,18.45
2023-05-10T10:05:58.111Z,18.48
2023-05-10T10:06:58.394Z,18.50
2023-05-10T10:07:58.825Z,18.51
2023-05-10T10:08:59.212Z,18.51
2023-05-10T10:09:59.366Z,18.54
2023-05-10T10:10:59.475Z,18.57
2023-05-10T10:11:59.859Z,18.57
2023-05-10T10:13:00.133Z,18.55
2023-05-10T10:14:00.346Z,18.57
2023-05-10T10:15:00.468Z,18.55
2023-05-10T10:16:00.904Z,18.57
2023-05-10T10:17:08.384Z,18.55
2023-05-10T10:18:02.218Z,18.52
2023-05-10T10:19:01.690Z,18.51
2023-05-10T10:20:01.835Z,18.54
2023-05-10T10:21:02.084Z,18.55
2023-05-10T10:22:02.374Z,18.58
2023-05-10T10:23:02.668Z,18.60
2023-05-10T10:24:02.967Z,18.62
2023-05-10T10:25:03.235Z,18.65
2023-05-10T10:26:03.565Z,18.66
2023-05-10T10:27:03.857Z,18.66
2023-05-10T10:28:04.172Z,18.66
2023-05-10T10:29:04.405Z,18.69
2023-05-10T10:30:04.686Z,18.73
2023-05-10T10:31:04.998Z,18.75
2023-05-10T10:32:05.224Z,18.78
2023-05-10T10:33:10.378Z,18.80
2023-05-10T10:34:06.709Z,18.81
2023-05-10T10:35:06.046Z,18.82
2023-05-10T10:36:06.304Z,18.87
2023-05-10T10:37:06.576Z,18.90
2023-05-10T10:38:06.857Z,18.87
2023-05-10T10:39:07.146Z,18.81
2023-05-10T10:40:07.445Z,18.76
2023-05-10T10:41:07.739Z,18.76
2023-05-10T10:42:08.044Z,18.81
2023-05-10T10:43:08.288Z,18.85
2023-05-10T10:44:08.593Z,18.87
2023-05-10T10:45:09.097Z,18.91
2023-05-10T10:46:09.389Z,18.94
2023-05-10T10:47:09.720Z,18.99
2023-05-10T10:48:09.951Z,19.02
2023-05-10T10:49:10.132Z,19.04
2023-05-10T10:50:10.499Z,19.06
2023-05-10T10:51:12.742Z,19.10
2023-05-10T10:52:11.088Z,19.10
2023-05-10T10:53:11.378Z,19.11
2023-05-10T10:54:11.651Z,19.11
2023-05-10T10:55:11.919Z,19.13
2023-05-10T10:56:12.203Z,19.19
2023-05-10T10:57:12.461Z,19.22
2023-05-10T10:58:12.789Z,19.23
2023-05-10T10:59:13.109Z,19.23
2023-05-10T11:00:13.469Z,19.26
2023-05-10T11:01:13.675Z,19.26
2023-05-10T11:02:14.011Z,19.28
2023-05-10T11:03:14.630Z,19.29
2023-05-10T11:04:14.482Z,19.31
2023-05-10T11:05:14.998Z,19.33
2023-05-10T11:06:15.215Z,19.32
2023-05-10T11:07:15.309Z,19.33
2023-05-10T11:08:15.611Z,19.33
2023-05-10T11:09:15.870Z,19.33
2023-05-10T11:10:16.312Z,19.37
2023-05-10T11:11:16.503Z,19.41
2023-05-10T11:12:16.737Z,19.44
2023-05-10T11:13:18.494Z,19.43
2023-05-10T11:14:18.309Z,19.44
2023-05-10T11:15:17.968Z,19.44
2023-05-10T11:16:18.136Z,19.47
2023-05-10T11:17:18.144Z,19.48
2023-05-10T11:18:18.545Z,19.51
2023-05-10T11:19:18.685Z,19.54
2023-05-10T11:20:19.234Z,19.54
2023-05-10T11:21:19.224Z,19.55
2023-05-10T11:22:19.504Z,19.55
2023-05-10T11:23:19.756Z,19.56
2023-05-10T11:24:20.022Z,19.56
2023-05-10T11:25:20.296Z,19.58
2023-05-10T11:26:21.554Z,19.56
2023-05-10T11:27:20.884Z,19.55
2023-05-10T11:28:21.165Z,19.55
2023-05-10T11:29:21.499Z,19.54
2023-05-10T11:30:21.789Z,19.56
2023-05-10T11:31:22.044Z,19.58
2023-05-10T11:32:22.300Z,19.59
2023-05-10T11:33:22.698Z,19.62
2023-05-10T11:34:22.871Z,19.63
2023-05-10T11:35:23.158Z,19.63
2023-05-10T11:36:23.432Z,19.66
2023-05-10T11:37:23.887Z,19.69
2023-05-10T11:38:24.322Z,19.74
2023-05-10T11:39:24.538Z,19.76
2023-05-10T11:40:24.735Z,19.76
2023-05-10T11:41:24.848Z,19.76
2023-05-10T11:42:25.167Z,19.78
2023-05-10T11:43:25.521Z,19.77
2023-05-10T11:44:25.892Z,19.81
2023-05-10T11:45:26.152Z,19.86
2023-05-10T11:46:26.634Z,19.91
2023-05-10T11:47:26.884Z,19.94
2023-05-10T11:48:27.026Z,19.91
2023-05-10T11:49:27.351Z,19.92
2023-05-10T11:50:27.698Z,19.87
2023-05-10T11:51:27.849Z,19.86
2023-05-10T11:52:28.629Z,19.86
2023-05-10T11:53:28.618Z,19.86
2023-05-10T11:54:28.749Z,19.84
2023-05-10T11:55:29.012Z,19.87
2023-05-10T11:56:29.286Z,19.88
2023-05-10T11:57:34.031Z,19.91
2023-05-10T11:58:29.954Z,19.88
2023-05-10T11:59:30.106Z,19.92
2023-05-10T12:00:30.410Z,19.92
2023-05-10T12:01:30.662Z,19.91
2023-05-10T12:02:31.067Z,19.91
2023-05-10T12:03:32.042Z,19.87
2023-05-10T12:04:31.598Z,19.86
2023-05-10T12:05:31.681Z,19.86
2023-05-10T12:06:32.140Z,19.88
2023-05-10T12:07:32.209Z,19.87
2023-05-10T12:08:32.805Z,19.86
2023-05-10T12:09:43.298Z,19.88
2023-05-10T12:10:33.980Z,19.91
2023-05-10T12:11:33.329Z,19.94
2023-05-10T12:12:33.548Z,19.96
2023-05-10T12:13:33.947Z,19.96
2023-05-10T12:14:34.202Z,19.99
2023-05-10T12:15:34.435Z,20.02
2023-05-10T12:16:34.762Z,20.02
2023-05-10T12:17:35.073Z,20.03
2023-05-10T12:18:35.342Z,20.02
2023-05-10T12:19:35.541Z,20.06
2023-05-10T12:20:35.883Z,20.05
2023-05-10T12:21:36.174Z,20.03
2023-05-10T12:22:36.448Z,20.01
2023-05-10T12:23:36.738Z,20.02
2023-05-10T12:24:36.992Z,20.03
2023-05-10T12:25:37.257Z,20.06
2023-05-10T12:26:37.562Z,20.05
2023-05-10T12:27:37.828Z,20.06
2023-05-10T12:28:38.071Z,20.08
2023-05-10T12:29:38.345Z,20.10
2023-05-10T12:30:38.600Z,20.11
2023-05-10T12:31:38.865Z,20.13
2023-05-10T12:32:39.137Z,20.16
2023-05-10T12:33:39.391Z,20.16
2023-05-10T12:34:39.759Z,20.16
2023-05-10T12:35:41.767Z,20.16
2023-05-10T12:36:40.357Z,20.16
2023-05-10T12:37:40.576Z,20.17
2023-05-10T12:38:40.842Z,20.17
2023-05-10T12:39:41.110Z,20.20
2023-05-10T12:40:41.390Z,20.24
2023-05-10T12:41:43.627Z,20.28
2023-05-10T12:42:41.941Z,20.31
2023-05-10T12:43:42.248Z,20.29
2023-05-10T12:44:42.512Z,20.28
2023-05-10T12:45:42.798Z,20.26
2023-05-10T12:46:43.002Z,20.31
2023-05-10T12:47:44.104Z,20.31
2023-05-10T12:48:43.652Z,20.31
2023-05-10T12:49:43.945Z,20.29
2023-05-10T12:50:44.238Z,20.31
2023-05-10T12:51:44.498Z,20.29
2023-05-10T12:52:44.734Z,20.29
2023-05-10T12:53:46.720Z,20.29
2023-05-10T12:54:45.305Z,20.28
2023-05-10T12:55:45.527Z,20.28